Time;durP1;ratioP1;P1;durP2;ratioP2;P2;SDS_P1;SDS_P2;PMS_P1;PMS_P2;Temp;Humidity;BMP_temperature;BMP_pressure;BME280_temperature;BME280_humidity;BME280_pressure;Samples;Min_cycle;Max_cycle;Signal;HPM_P1;HPM_P2
2021/03/30 00:00:24;;;;;;;7.87;5.03;;;15.60;35.10;;;;;;5018730;28;20516;-88
2021/03/30 00:02:51;;;;;;;8.60;4.97;;;15.80;35.70;;;;;;5018621;28;20548;-88
2021/03/30 00:05:18;;;;;;;7.50;5.20;;;15.80;34.20;;;;;;5019293;28;20530;-88
2021/03/30 00:07:44;;;;;;;9.07;6.10;;;15.80;34.00;;;;;;5019261;28;20536;-88
2021/03/30 00:10:14;;;;;;;9.90;5.30;;;15.10;32.80;;;;;;5018718;28;20517;-88
2021/03/30 00:12:40;;;;;;;9.17;4.83;;;14.80;35.40;;;;;;5024660;28;20453;-87
2021/03/30 00:15:10;;;;;;;9.83;6.00;;;14.40;35.30;;;;;;5031571;28;20505;-87
2021/03/30 00:17:36;;;;;;;15.20;5.77;;;13.80;35.10;;;;;;5018103;28;20466;-88
2021/03/30 00:20:08;;;;;;;10.23;5.47;;;13.10;35.70;;;;;;5018308;28;20464;-87
2021/03/30 00:22:35;;;;;;;9.20;6.00;;;13.00;35.50;;;;;;5018177;28;20869;-88
2021/03/30 00:25:02;;;;;;;11.67;6.63;;;12.80;35.40;;;;;;5017923;28;20564;-87
2021/03/30 00:27:28;;;;;;;13.80;6.60;;;12.50;37.60;;;;;;5017679;28;20460;-87
2021/03/30 00:29:55;;;;;;;11.00;6.03;;;12.00;37.20;;;;;;5017866;28;20544;-87
2021/03/30 00:32:21;;;;;;;9.37;6.30;;;12.00;41.10;;;;;;5017350;28;20485;-87
2021/03/30 00:34:47;;;;;;;6.67;4.90;;;12.40;39.10;;;;;;5017796;28;20576;-88
2021/03/30 00:37:14;;;;;;;10.33;6.03;;;12.80;39.90;;;;;;5017791;28;20464;-88
2021/03/30 00:39:41;;;;;;;19.40;5.43;;;13.10;37.10;;;;;;5017392;28;20458;-87
2021/03/30 00:42:08;;;;;;;8.40;5.00;;;13.40;38.60;;;;;;5017617;28;20499;-87
2021/03/30 00:44:35;;;;;;;9.80;4.90;;;13.80;37.30;;;;;;5017014;28;20454;-88
2021/03/30 00:47:02;;;;;;;8.63;5.30;;;14.10;36.90;;;;;;5017182;28;20461;-88
2021/03/30 00:49:31;;;;;;;8.33;5.80;;;14.40;35.40;;;;;;5017104;28;20464;-88
2021/03/30 00:51:57;;;;;;;12.53;5.30;;;14.20;36.90;;;;;;5017404;28;20474;-88
2021/03/30 00:54:25;;;;;;;7.13;4.83;;;14.30;36.70;;;;;;5016833;28;20482;-88
2021/03/30 00:56:53;;;;;;;7.27;5.03;;;14.70;37.80;;;;;;5030541;28;20450;-88
2021/03/30 00:59:22;;;;;;;7.33;4.70;;;15.00;37.30;;;;;;5025249;28;20532;-88
2021/03/30 01:01:48;;;;;;;9.00;5.63;;;15.20;36.40;;;;;;5017973;28;20506;-88
2021/03/30 01:04:15;;;;;;;6.80;4.90;;;15.10;34.60;;;;;;5024183;28;20912;-88
2021/03/30 01:06:41;;;;;;;9.10;4.70;;;15.00;34.80;;;;;;5023550;28;20492;-88
2021/03/30 01:09:28;;;;;;;14.07;5.63;;;15.00;34.60;;;;;;5020925;28;20482;-88
2021/03/30 01:12:05;;;;;;;10.20;4.73;;;15.10;37.10;;;;;;5026114;28;20477;-87
2021/03/30 01:14:49;;;;;;;9.83;5.43;;;15.50;37.80;;;;;;5034843;28;20466;-87
2021/03/30 01:17:28;;;;;;;8.73;5.33;;;15.40;36.70;;;;;;5035895;28;20419;-87
2021/03/30 01:20:24;;;;;;;8.97;5.67;;;15.50;36.40;;;;;;5036753;28;20410;-87
2021/03/30 01:23:16;;;;;;;11.00;6.33;;;15.40;35.50;;;;;;5032941;28;20430;-87
2021/03/30 01:25:48;;;;;;;10.27;5.67;;;14.70;32.70;;;;;;5004812;28;20449;-87
2021/03/30 01:28:27;;;;;;;7.63;4.83;;;14.50;35.30;;;;;;5024514;28;20463;-88
2021/03/30 01:30:56;;;;;;;8.90;4.90;;;14.30;33.90;;;;;;5021987;28;20984;-88
2021/03/30 01:33:29;;;;;;;16.60;5.30;;;14.10;36.00;;;;;;5020306;28;20505;-88
2021/03/30 01:35:57;;;;;;;9.03;5.03;;;14.10;37.90;;;;;;5024701;28;20542;-87
2021/03/30 01:38:25;;;;;;;7.30;4.97;;;14.60;38.30;;;;;;5031952;28;20453;-87
2021/03/30 01:40:54;;;;;;;7.73;5.23;;;14.90;37.80;;;;;;5033464;28;20470;-87
2021/03/30 01:43:21;;;;;;;8.50;5.27;;;15.00;37.40;;;;;;5024337;28;20815;-87
2021/03/30 01:45:52;;;;;;;8.67;5.20;;;15.30;36.60;;;;;;5018021;28;20492;-88
2021/03/30 01:48:21;;;;;;;8.60;4.97;;;15.20;36.40;;;;;;5018151;28;20500;-88
2021/03/30 01:50:48;;;;;;;13.20;4.80;;;15.20;36.40;;;;;;5018047;28;20815;-88
2021/03/30 01:53:16;;;;;;;9.17;5.23;;;15.20;34.80;;;;;;5016712;28;20500;-88
2021/03/30 01:55:44;;;;;;;10.43;5.73;;;15.30;36.40;;;;;;5016361;28;20495;-88
2021/03/30 01:58:12;;;;;;;10.17;5.43;;;15.30;36.00;;;;;;5016583;28;20478;-88
2021/03/30 02:00:39;;;;;;;6.03;4.30;;;15.40;36.40;;;;;;5017003;28;20560;-88
2021/03/30 02:03:07;;;;;;;15.50;5.10;;;15.40;36.30;;;;;;5017642;28;20454;-88
2021/03/30 02:05:35;;;;;;;6.20;4.87;;;15.50;36.30;;;;;;5016352;28;20520;-88
2021/03/30 02:08:02;;;;;;;7.37;5.10;;;15.40;33.10;;;;;;5015156;28;20865;-88
2021/03/30 02:10:34;;;;;;;9.23;5.17;;;14.80;33.60;;;;;;5016465;28;20482;-88
2021/03/30 02:13:02;;;;;;;8.00;4.90;;;14.00;33.30;;;;;;5015993;28;20437;-88
2021/03/30 02:15:29;;;;;;;8.30;5.07;;;14.00;37.10;;;;;;5016305;28;20474;-88
2021/03/30 02:18:02;;;;;;;10.47;4.80;;;14.40;37.30;;;;;;5018359;28;20536;-87
2021/03/30 02:20:33;;;;;;;7.90;5.27;;;14.70;37.40;;;;;;5028389;28;20474;-87
2021/03/30 02:23:05;;;;;;;8.53;5.37;;;14.90;36.80;;;;;;5033363;28;20434;-87
2021/03/30 02:25:33;;;;;;;6.73;5.30;;;14.90;34.50;;;;;;5029749;28;20783;-87
2021/03/30 02:28:04;;;;;;;11.60;4.77;;;14.30;35.70;;;;;;5022389;28;20442;-87
2021/03/30 02:30:33;;;;;;;8.97;5.33;;;13.70;35.70;;;;;;5021420;28;21024;-87
2021/03/30 02:32:59;;;;;;;7.90;5.60;;;12.80;36.40;;;;;;5016015;28;20524;-87
2021/03/30 02:35:26;;;;;;;6.80;5.33;;;12.60;37.80;;;;;;5015751;28;20477;-87
2021/03/30 02:37:53;;;;;;;7.87;5.03;;;12.30;37.60;;;;;;5015667;28;20520;-87
2021/03/30 02:40:25;;;;;;;15.87;5.37;;;12.20;38.40;;;;;;5015405;28;20499;-87
2021/03/30 02:42:54;;;;;;;10.03;5.73;;;12.00;38.80;;;;;;5016660;28;20888;-87
2021/03/30 02:45:26;;;;;;;8.50;5.63;;;12.00;37.60;;;;;;5015891;28;20480;-88
2021/03/30 02:47:56;;;;;;;12.40;5.37;;;12.10;38.60;;;;;;5019293;28;20450;-88
2021/03/30 02:50:23;;;;;;;12.90;5.27;;;12.40;38.10;;;;;;5029046;28;20449;-87
2021/03/30 02:52:51;;;;;;;8.30;5.67;;;12.70;37.90;;;;;;5017295;28;20485;-87
2021/03/30 02:55:18;;;;;;;6.70;4.50;;;12.60;36.50;;;;;;5015576;28;20558;-87
2021/03/30 02:57:47;;;;;;;7.40;4.83;;;12.40;38.50;;;;;;5015784;28;21021;-88
2021/03/30 03:00:15;;;;;;;8.93;4.37;;;12.60;38.10;;;;;;5015486;28;20436;-88
2021/03/30 03:02:46;;;;;;;11.60;5.47;;;13.10;39.90;;;;;;5016297;28;20879;-88
2021/03/30 03:05:13;;;;;;;7.80;5.07;;;13.60;38.70;;;;;;5029610;28;20466;-88
2021/03/30 03:07:41;;;;;;;6.23;4.83;;;14.00;39.10;;;;;;5016457;28;20891;-88
2021/03/30 03:10:10;;;;;;;7.90;4.67;;;14.40;38.70;;;;;;5015336;28;20474;-88
2021/03/30 03:12:39;;;;;;;9.23;4.97;;;14.50;37.80;;;;;;5015367;28;20470;-88
2021/03/30 03:15:09;;;;;;;6.60;4.30;;;14.50;37.20;;;;;;5022111;28;20492;-88
2021/03/30 03:17:35;;;;;;;10.47;5.60;;;14.70;37.80;;;;;;5017947;28;20453;-88
2021/03/30 03:20:05;;;;;;;7.80;4.67;;;14.90;37.60;;;;;;5018285;28;20436;-88
2021/03/30 03:22:34;;;;;;;9.37;4.70;;;14.90;37.60;;;;;;5020361;28;20496;-88
2021/03/30 03:25:00;;;;;;;11.27;5.27;;;14.90;37.10;;;;;;5019171;28;20875;-88
2021/03/30 03:27:29;;;;;;;10.60;4.93;;;14.70;35.20;;;;;;5019147;28;20454;-88
2021/03/30 03:29:56;;;;;;;5.80;4.00;;;14.50;36.00;;;;;;5019392;28;20485;-88
2021/03/30 03:32:24;;;;;;;8.57;4.73;;;14.40;37.50;;;;;;5019105;28;20485;-88
2021/03/30 03:34:51;;;;;;;5.67;4.53;;;14.60;37.40;;;;;;5019641;28;20532;-88
2021/03/30 03:37:17;;;;;;;9.37;4.80;;;14.70;37.40;;;;;;5018128;28;20457;-88
2021/03/30 03:39:44;;;;;;;6.53;4.47;;;15.00;37.30;;;;;;5018099;28;20915;-88
2021/03/30 03:42:10;;;;;;;6.90;4.80;;;15.10;36.30;;;;;;5018186;28;20627;-88
2021/03/30 03:44:36;;;;;;;8.53;5.27;;;15.00;35.10;;;;;;5017638;28;21019;-88
2021/03/30 03:47:06;;;;;;;7.30;4.60;;;14.70;35.50;;;;;;5017692;28;20915;-88
2021/03/30 03:49:34;;;;;;;8.10;4.43;;;14.30;34.80;;;;;;5018280;28;20569;-88
2021/03/30 03:52:04;;;;;;;6.90;4.87;;;13.60;36.10;;;;;;5017952;28;20512;-88
2021/03/30 03:54:32;;;;;;;8.23;4.60;;;13.20;36.80;;;;;;5018250;28;20489;-88
2021/03/30 03:57:04;;;;;;;12.20;5.63;;;13.10;37.60;;;;;;5017795;28;20462;-88
2021/03/30 03:59:34;;;;;;;7.03;5.17;;;12.90;38.00;;;;;;5018176;28;20444;-88
2021/03/30 04:02:10;;;;;;;6.90;4.70;;;12.80;38.10;;;;;;5017841;28;20563;-88
2021/03/30 04:04:43;;;;;;;5.77;4.80;;;12.50;37.70;;;;;;5017820;28;20434;-88
2021/03/30 04:07:16;;;;;;;7.67;5.07;;;12.30;37.50;;;;;;5018202;28;20545;-88
2021/03/30 04:09:47;;;;;;;17.00;4.93;;;12.50;37.70;;;;;;5017837;28;20440;-88
2021/03/30 04:12:16;;;;;;;14.37;6.03;;;12.60;37.00;;;;;;5017571;28;20481;-88
2021/03/30 04:14:42;;;;;;;7.90;5.17;;;12.90;37.10;;;;;;5017484;28;20571;-88
2021/03/30 04:17:12;;;;;;;10.60;5.00;;;13.00;38.30;;;;;;5017236;28;20945;-88
2021/03/30 04:19:40;;;;;;;9.50;5.30;;;13.30;37.80;;;;;;5017777;28;20591;-89
2021/03/30 04:22:07;;;;;;;8.90;5.60;;;13.50;37.60;;;;;;5018270;28;20509;-88
2021/03/30 04:24:33;;;;;;;8.20;5.20;;;13.40;37.20;;;;;;5019604;28;20438;-88
2021/03/30 04:27:00;;;;;;;12.13;5.10;;;13.00;36.80;;;;;;5035345;28;20446;-88
2021/03/30 04:29:26;;;;;;;16.07;6.77;;;12.50;37.20;;;;;;5035038;28;20940;-88
2021/03/30 04:31:52;;;;;;;10.13;5.20;;;12.20;39.20;;;;;;5024485;28;20489;-88
2021/03/30 04:34:19;;;;;;;9.53;5.27;;;11.80;39.90;;;;;;5020875;28;20455;-88
2021/03/30 04:36:46;;;;;;;9.07;5.30;;;11.60;39.80;;;;;;5020435;28;20464;-88
2021/03/30 04:39:13;;;;;;;11.93;5.70;;;11.50;40.60;;;;;;5020595;28;20951;-88
2021/03/30 04:41:39;;;;;;;10.20;6.17;;;11.40;41.40;;;;;;5019965;28;20553;-88
2021/03/30 04:44:07;;;;;;;8.67;5.50;;;11.40;40.00;;;;;;5019325;28;20492;-88
2021/03/30 04:46:33;;;;;;;15.20;5.63;;;11.10;40.70;;;;;;5020433;28;20413;-88
2021/03/30 04:48:59;;;;;;;10.10;5.37;;;10.80;41.90;;;;;;5019985;28;20457;-88
2021/03/30 04:51:26;;;;;;;8.07;5.80;;;11.10;42.00;;;;;;5018393;28;20495;-88
2021/03/30 04:53:53;;;;;;;11.97;5.60;;;11.40;41.20;;;;;;5018270;28;20453;-88
2021/03/30 04:56:20;;;;;;;7.80;5.90;;;11.60;41.10;;;;;;5021777;28;20459;-87
2021/03/30 04:58:46;;;;;;;7.97;5.43;;;11.60;39.80;;;;;;5019523;28;20464;-88
2021/03/30 05:01:12;;;;;;;14.57;6.13;;;11.50;40.00;;;;;;5018259;28;20475;-88
2021/03/30 05:03:39;;;;;;;9.97;6.03;;;11.80;41.00;;;;;;5018143;28;20447;-89
2021/03/30 05:06:06;;;;;;;7.57;5.20;;;12.20;40.00;;;;;;5017790;28;20497;-89
2021/03/30 05:08:33;;;;;;;8.47;5.20;;;12.30;40.30;;;;;;5017258;28;20904;-88
2021/03/30 05:11:00;;;;;;;13.33;5.90;;;12.40;39.70;;;;;;5017520;28;20471;-88
2021/03/30 05:13:27;;;;;;;8.53;5.63;;;12.40;37.60;;;;;;5018318;28;20545;-88
2021/03/30 05:15:54;;;;;;;10.23;6.10;;;12.50;37.80;;;;;;5018828;28;20470;-88
2021/03/30 05:18:20;;;;;;;11.70;5.50;;;12.20;37.50;;;;;;5017629;28;20455;-88
2021/03/30 05:20:47;;;;;;;8.77;6.67;;;11.80;38.50;;;;;;5019491;28;20574;-88
2021/03/30 05:23:13;;;;;;;9.23;5.53;;;12.30;39.70;;;;;;5018871;28;20474;-89
2021/03/30 05:25:40;;;;;;;8.80;5.30;;;12.70;39.00;;;;;;5017092;28;20434;-88
2021/03/30 05:28:07;;;;;;;7.30;5.50;;;13.00;38.20;;;;;;5018424;28;20943;-88
2021/03/30 05:30:34;;;;;;;9.80;5.80;;;12.90;38.10;;;;;;5015749;28;20565;-89
2021/03/30 05:33:00;;;;;;;8.70;5.00;;;13.00;38.20;;;;;;5017400;28;20485;-88
2021/03/30 05:35:27;;;;;;;10.07;6.57;;;13.30;39.00;;;;;;5027058;28;20537;-89
2021/03/30 05:37:57;;;;;;;10.03;5.73;;;13.10;36.00;;;;;;5036815;28;20446;-88
2021/03/30 05:40:24;;;;;;;11.10;6.30;;;13.10;38.30;;;;;;5036629;28;20438;-88
2021/03/30 05:42:50;;;;;;;10.93;6.10;;;13.30;34.80;;;;;;5018702;28;20449;-88
2021/03/30 05:45:19;;;;;;;12.73;6.17;;;13.60;35.40;;;;;;5017013;28;20449;-88
2021/03/30 05:47:48;;;;;;;9.60;6.00;;;14.20;34.90;;;;;;5017221;28;20538;-88
2021/03/30 05:50:16;;;;;;;10.73;5.83;;;14.60;33.10;;;;;;5017213;28;20481;-88
2021/03/30 05:52:47;;;;;;;12.20;6.00;;;15.10;32.80;;;;;;5016456;28;20805;-88
2021/03/30 05:55:21;;;;;;;10.03;5.57;;;15.40;31.40;;;;;;5016199;28;20817;-88
2021/03/30 05:57:50;;;;;;;23.87;7.30;;;15.80;31.00;;;;;;5016193;28;20440;-88
2021/03/30 06:00:21;;;;;;;8.53;6.13;;;15.70;30.00;;;;;;5017333;28;20437;-88
2021/03/30 06:02:49;;;;;;;14.23;8.30;;;15.90;29.80;;;;;;5017055;28;20501;-88
2021/03/30 06:05:17;;;;;;;18.60;7.67;;;15.80;30.00;;;;;;5016742;28;20527;-88
2021/03/30 06:07:44;;;;;;;14.10;6.37;;;16.30;29.80;;;;;;5016771;28;20982;-88
2021/03/30 06:10:14;;;;;;;12.13;5.50;;;16.60;29.70;;;;;;5024640;28;20457;-87
2021/03/30 06:12:41;;;;;;;10.13;5.87;;;17.00;29.70;;;;;;5023196;28;20545;-87
2021/03/30 06:15:09;;;;;;;15.40;6.00;;;17.20;28.60;;;;;;5016076;28;20562;-88
2021/03/30 06:17:45;;;;;;;13.07;5.40;;;17.70;28.30;;;;;;5020699;28;20478;-87
2021/03/30 06:20:13;;;;;;;8.83;5.00;;;18.60;28.50;;;;;;5015285;28;20520;-88
2021/03/30 06:22:49;;;;;;;11.07;5.97;;;19.10;26.60;;;;;;5015742;28;20541;-89
2021/03/30 06:25:33;;;;;;;7.80;5.13;;;19.10;27.20;;;;;;5015355;28;20434;-88
2021/03/30 06:28:14;;;;;;;11.23;5.70;;;19.60;26.30;;;;;;5014303;28;20442;-88
2021/03/30 06:30:54;;;;;;;17.70;5.70;;;20.10;25.30;;;;;;5015093;28;20561;-88
2021/03/30 06:33:22;;;;;;;11.10;6.13;;;20.40;25.40;;;;;;5016310;28;20454;-88
2021/03/30 06:35:48;;;;;;;12.93;5.67;;;20.30;25.10;;;;;;5014747;28;20876;-88
2021/03/30 06:38:16;;;;;;;16.87;5.40;;;19.90;25.50;;;;;;5015096;28;20454;-89
2021/03/30 06:40:44;;;;;;;12.03;5.70;;;19.70;26.20;;;;;;5015321;28;20556;-88
2021/03/30 06:46:07;;;;;;;23.47;6.13;;;19.90;25.80;;;;;;5016037;28;20432;-88
2021/03/30 06:48:35;;;;;;;12.57;5.77;;;20.90;24.70;;;;;;5015247;28;20481;-88
2021/03/30 06:51:17;;;;;;;11.60;5.43;;;20.90;24.70;;;;;;5015011;28;21013;-88
2021/03/30 06:53:43;;;;;;;9.97;5.60;;;21.10;24.80;;;;;;5014605;28;20529;-88
2021/03/30 06:56:10;;;;;;;11.23;5.17;;;20.70;24.60;;;;;;5016677;28;20516;-87
2021/03/30 06:58:54;;;;;;;8.60;5.17;;;19.80;25.60;;;;;;5031039;28;20462;-89
2021/03/30 07:01:22;;;;;;;14.90;5.43;;;20.40;26.00;;;;;;5023261;28;20595;-88
2021/03/30 07:03:49;;;;;;;10.40;5.63;;;21.30;24.50;;;;;;5031173;28;20784;-87
2021/03/30 07:06:16;;;;;;;11.70;6.27;;;20.90;24.70;;;;;;5019590;28;20476;-87
2021/03/30 07:08:44;;;;;;;11.20;5.60;;;21.20;24.80;;;;;;5018814;28;20474;-87
2021/03/30 07:11:11;;;;;;;10.57;5.40;;;21.80;25.10;;;;;;5016699;28;20500;-87
2021/03/30 07:13:38;;;;;;;16.30;5.53;;;22.00;24.00;;;;;;5015491;28;20513;-87
2021/03/30 07:16:10;;;;;;;11.73;5.90;;;22.00;23.70;;;;;;5015071;28;21007;-87
2021/03/30 07:18:40;;;;;;;12.73;6.07;;;22.40;23.70;;;;;;5014465;28;20470;-88
2021/03/30 07:21:19;;;;;;;12.30;6.87;;;22.30;23.60;;;;;;5014649;28;20529;-88
2021/03/30 07:23:47;;;;;;;8.50;5.40;;;22.20;23.60;;;;;;5014995;28;20429;-88
2021/03/30 07:26:15;;;;;;;8.33;5.83;;;23.00;23.50;;;;;;5017274;28;20473;-87
2021/03/30 07:28:47;;;;;;;9.17;5.60;;;23.00;22.60;;;;;;5036905;28;20476;-88
2021/03/30 07:31:15;;;;;;;12.63;5.47;;;22.40;23.30;;;;;;5036781;28;20461;-89
2021/03/30 07:33:47;;;;;;;6.90;5.00;;;22.60;23.20;;;;;;5022329;28;20597;-88
2021/03/30 07:36:17;;;;;;;12.63;6.07;;;22.40;22.50;;;;;;5015075;28;20551;-88
2021/03/30 07:38:46;;;;;;;13.20;6.20;;;23.30;22.20;;;;;;5015093;28;20419;-87
2021/03/30 07:41:18;;;;;;;12.83;6.13;;;23.80;21.50;;;;;;5014443;28;20470;-88
2021/03/30 07:43:49;;;;;;;9.83;5.50;;;23.80;22.10;;;;;;5015067;28;20512;-88
2021/03/30 07:46:16;;;;;;;12.77;5.10;;;23.50;21.80;;;;;;5024976;28;20437;-87
2021/03/30 07:48:46;;;;;;;8.80;5.37;;;23.20;21.80;;;;;;5030379;28;20596;-88
2021/03/30 07:51:13;;;;;;;8.47;5.30;;;23.70;21.20;;;;;;5028334;28;20477;-87
2021/03/30 07:53:47;;;;;;;10.10;5.30;;;23.60;21.30;;;;;;5024391;28;20517;-88
2021/03/30 07:56:55;;;;;;;10.03;5.67;;;23.80;21.20;;;;;;5016458;28;20473;-88
2021/03/30 07:59:49;;;;;;;17.53;5.33;;;23.70;21.30;;;;;;5015474;28;20490;-88
2021/03/30 08:02:24;;;;;;;9.63;5.40;;;23.30;21.90;;;;;;5024198;28;20477;-87
2021/03/30 08:05:03;;;;;;;22.00;5.67;;;22.90;22.30;;;;;;5028915;28;20449;-87
2021/03/30 08:07:53;;;;;;;14.63;5.70;;;22.80;22.70;;;;;;5018028;28;20465;-88
2021/03/30 08:10:29;;;;;;;13.83;5.60;;;23.40;22.40;;;;;;5017235;28;20811;-88
2021/03/30 08:13:30;;;;;;;11.20;5.57;;;23.70;22.50;;;;;;5017509;28;20436;-88
2021/03/30 08:15:59;;;;;;;7.03;5.03;;;22.50;22.50;;;;;;4978058;28;20522;-88
2021/03/30 08:18:27;;;;;;;16.50;5.60;;;22.50;23.10;;;;;;5009195;28;20488;-88
2021/03/30 08:20:56;;;;;;;14.57;6.37;;;21.80;23.70;;;;;;5017097;28;20489;-88
2021/03/30 08:23:22;;;;;;;9.70;5.87;;;21.50;24.30;;;;;;5017441;28;20464;-88
2021/03/30 08:25:52;;;;;;;10.50;5.10;;;21.80;23.60;;;;;;5017615;28;20450;-88
2021/03/30 08:28:54;;;;;;;9.10;5.10;;;23.10;22.70;;;;;;5017293;28;20446;-88
2021/03/30 08:31:24;;;;;;;10.30;6.00;;;22.60;22.50;;;;;;5017471;28;20474;-88
2021/03/30 08:33:51;;;;;;;8.00;4.97;;;23.00;23.40;;;;;;5017599;28;20515;-87
2021/03/30 08:36:21;;;;;;;9.23;5.70;;;22.10;22.60;;;;;;5017617;28;20513;-88
2021/03/30 08:38:49;;;;;;;10.43;5.53;;;22.00;22.80;;;;;;5018103;28;20441;-88
2021/03/30 08:42:00;;;;;;;9.70;5.53;;;21.90;23.10;;;;;;5016043;28;20836;-87
2021/03/30 08:44:36;;;;;;;14.70;5.30;;;22.20;22.90;;;;;;4975527;28;20527;-87
2021/03/30 08:47:03;;;;;;;7.40;5.50;;;22.50;22.00;;;;;;5009532;28;20488;-87
2021/03/30 08:49:35;;;;;;;9.17;5.33;;;22.10;22.00;;;;;;5017642;28;20869;-87
2021/03/30 08:52:04;;;;;;;9.97;4.97;;;21.70;21.90;;;;;;5016765;28;20466;-87
2021/03/30 08:54:32;;;;;;;11.10;6.07;;;21.60;22.30;;;;;;5016228;28;20430;-87
2021/03/30 08:57:01;;;;;;;7.93;5.30;;;21.60;21.90;;;;;;5017248;28;20450;-88
2021/03/30 08:59:29;;;;;;;9.70;5.30;;;22.40;22.10;;;;;;5017069;28;20458;-87
2021/03/30 09:02:05;;;;;;;10.03;5.23;;;22.20;21.90;;;;;;5017126;28;20461;-87
2021/03/30 09:04:34;;;;;;;10.17;5.87;;;21.80;22.20;;;;;;5016806;28;20442;-87
2021/03/30 09:07:00;;;;;;;12.10;5.40;;;20.90;23.00;;;;;;5016252;28;20937;-87
2021/03/30 09:09:33;;;;;;;10.67;5.40;;;21.00;23.60;;;;;;5016553;28;20450;-87
2021/03/30 09:12:00;;;;;;;26.57;5.60;;;20.80;24.10;;;;;;5015984;28;20987;-87
2021/03/30 09:14:27;;;;;;;9.37;5.90;;;20.60;24.20;;;;;;5016444;28;20453;-86
2021/03/30 09:17:05;;;;;;;9.20;5.90;;;20.80;24.50;;;;;;5014949;28;20441;-87
2021/03/30 09:19:38;;;;;;;11.90;5.97;;;20.20;24.80;;;;;;5016508;28;20414;-87
2021/03/30 09:22:06;;;;;;;16.27;6.20;;;20.40;25.20;;;;;;5016368;28;20469;-86
2021/03/30 09:24:49;;;;;;;9.40;5.33;;;19.90;25.70;;;;;;5015826;28;20454;-86
2021/03/30 09:27:20;;;;;;;9.97;5.27;;;19.60;25.80;;;;;;5016015;28;20443;-87
2021/03/30 09:29:47;;;;;;;9.40;6.30;;;19.70;26.10;;;;;;5016413;28;20438;-86
2021/03/30 09:32:15;;;;;;;10.17;5.70;;;19.30;26.10;;;;;;5016302;28;20485;-86
2021/03/30 09:34:43;;;;;;;11.67;5.43;;;19.60;25.80;;;;;;5016107;28;20486;-86
2021/03/30 09:37:10;;;;;;;11.23;6.03;;;19.30;25.40;;;;;;5016739;28;20450;-86
2021/03/30 09:39:37;;;;;;;16.57;6.13;;;19.50;25.30;;;;;;5016185;28;20936;-86
2021/03/30 09:42:05;;;;;;;16.43;6.40;;;19.40;25.20;;;;;;5015734;28;21001;-86
2021/03/30 09:44:35;;;;;;;12.03;6.47;;;19.40;24.70;;;;;;5016662;28;20488;-86
2021/03/30 09:47:02;;;;;;;16.80;6.03;;;19.20;25.40;;;;;;5016293;28;20454;-86
2021/03/30 09:49:29;;;;;;;12.80;6.07;;;19.40;25.70;;;;;;5020501;28;20453;-86
2021/03/30 09:52:00;;;;;;;12.13;7.30;;;19.90;24.90;;;;;;5020989;28;21014;-86
2021/03/30 09:54:29;;;;;;;8.67;5.80;;;19.60;24.80;;;;;;5019854;28;20445;-86
2021/03/30 09:56:57;;;;;;;11.73;6.50;;;19.40;24.50;;;;;;5018287;28;20440;-86
2021/03/30 09:59:24;;;;;;;13.80;5.50;;;19.50;25.00;;;;;;5021100;28;20438;-87
2021/03/30 10:01:52;;;;;;;17.23;6.80;;;19.50;25.20;;;;;;5017038;28;20474;-87
2021/03/30 10:04:21;;;;;;;10.67;6.07;;;19.90;24.20;;;;;;5018984;28;20454;-87
2021/03/30 10:06:48;;;;;;;9.40;5.50;;;20.00;24.00;;;;;;5017128;28;20454;-87
2021/03/30 10:09:15;;;;;;;17.53;5.90;;;20.20;24.70;;;;;;5017049;28;20561;-87
2021/03/30 10:11:44;;;;;;;16.73;5.70;;;20.30;24.20;;;;;;5017863;28;20988;-87
2021/03/30 10:14:21;;;;;;;13.30;6.17;;;20.00;23.50;;;;;;5016547;28;20520;-87
2021/03/30 10:16:48;;;;;;;10.00;5.50;;;20.00;23.70;;;;;;5018789;28;20484;-87
2021/03/30 10:19:15;;;;;;;11.73;6.37;;;20.20;25.10;;;;;;5017684;28;20833;-87
2021/03/30 10:21:45;;;;;;;13.50;6.73;;;20.50;24.00;;;;;;5017888;28;20984;-87
2021/03/30 10:24:16;;;;;;;13.00;7.60;;;20.40;24.20;;;;;;5024711;28;20445;-87
2021/03/30 10:26:43;;;;;;;9.37;5.47;;;20.20;24.20;;;;;;5026481;28;20430;-87
2021/03/30 10:29:15;;;;;;;10.43;5.67;;;20.40;24.30;;;;;;5025727;28;20552;-87
2021/03/30 10:31:45;;;;;;;11.70;5.87;;;20.40;24.30;;;;;;5026346;28;20466;-88
2021/03/30 10:34:26;;;;;;;8.70;5.90;;;20.50;24.40;;;;;;5029195;28;20450;-87
2021/03/30 10:36:54;;;;;;;9.03;5.40;;;20.50;25.00;;;;;;5020878;28;20908;-87
2021/03/30 10:39:30;;;;;;;15.63;5.37;;;21.00;24.70;;;;;;5018255;28;20474;-87
2021/03/30 10:42:08;;;;;;;10.83;5.33;;;20.80;24.60;;;;;;5019275;28;20458;-87
2021/03/30 10:44:37;;;;;;;8.50;5.27;;;20.90;23.60;;;;;;5021213;28;20454;-87
2021/03/30 10:47:15;;;;;;;11.27;5.53;;;20.90;23.40;;;;;;5023510;28;20473;-85
2021/03/30 10:49:42;;;;;;;10.40;5.87;;;20.50;24.40;;;;;;5023213;28;20469;-84
2021/03/30 10:52:14;;;;;;;12.80;6.13;;;20.60;25.10;;;;;;5028244;28;20450;-87
2021/03/30 10:54:43;;;;;;;9.10;4.97;;;21.10;24.80;;;;;;5021073;28;20438;-86
2021/03/30 10:57:13;;;;;;;11.53;5.07;;;21.30;24.80;;;;;;5014491;28;20982;-86
2021/03/30 10:59:39;;;;;;;8.60;5.37;;;21.40;24.60;;;;;;5014299;28;20836;-86
2021/03/30 11:02:06;;;;;;;7.77;5.00;;;21.50;23.00;;;;;;5013481;28;20513;-86
2021/03/30 11:04:32;;;;;;;17.37;5.30;;;21.70;23.70;;;;;;5013877;28;20486;-86
2021/03/30 11:06:59;;;;;;;14.57;5.30;;;21.90;23.10;;;;;;5031724;28;20438;-86
2021/03/30 11:09:26;;;;;;;18.80;7.30;;;22.20;23.10;;;;;;5034541;28;20446;-86
2021/03/30 11:11:54;;;;;;;11.23;5.50;;;22.20;23.20;;;;;;5025104;28;20474;-86
2021/03/30 11:14:21;;;;;;;8.43;4.67;;;22.00;23.50;;;;;;5014748;28;20446;-86
2021/03/30 11:16:48;;;;;;;15.73;6.70;;;21.70;23.20;;;;;;5014136;28;20565;-87
2021/03/30 11:19:15;;;;;;;14.50;7.23;;;21.50;22.90;;;;;;5013960;28;20541;-86
2021/03/30 11:21:41;;;;;;;13.43;6.00;;;21.70;23.50;;;;;;5014160;28;20462;-86
2021/03/30 11:24:12;;;;;;;12.73;6.23;;;21.80;23.00;;;;;;5014182;28;20442;-86
2021/03/30 11:26:39;;;;;;;11.13;5.87;;;21.80;22.90;;;;;;5014437;28;20430;-87
2021/03/30 11:29:09;;;;;;;11.13;5.50;;;21.80;23.40;;;;;;5020403;28;20484;-86
2021/03/30 11:31:51;;;;;;;9.07;5.43;;;21.80;22.80;;;;;;5022880;28;20458;-86
2021/03/30 11:34:22;;;;;;;10.13;5.20;;;22.00;23.10;;;;;;5034020;28;20423;-86
2021/03/30 11:36:52;;;;;;;18.53;6.40;;;22.50;23.10;;;;;;5033990;28;20474;-86
2021/03/30 11:39:19;;;;;;;9.10;5.70;;;22.60;22.10;;;;;;5024602;28;20442;-86
2021/03/30 11:41:45;;;;;;;12.10;5.13;;;22.70;21.40;;;;;;5019453;28;20557;-86
2021/03/30 11:44:12;;;;;;;13.53;5.27;;;22.40;22.20;;;;;;5017896;28;20477;-87
2021/03/30 11:46:39;;;;;;;8.53;5.60;;;22.50;22.40;;;;;;5018327;28;20469;-87
2021/03/30 11:49:05;;;;;;;19.73;5.40;;;22.70;22.20;;;;;;5017325;28;20481;-87
2021/03/30 11:51:32;;;;;;;8.00;5.97;;;22.70;23.00;;;;;;5017714;28;20458;-86
2021/03/30 11:53:59;;;;;;;9.67;5.27;;;22.70;22.30;;;;;;5018174;28;20475;-86
2021/03/30 11:56:25;;;;;;;10.03;5.63;;;22.80;22.90;;;;;;5019074;28;20482;-88
2021/03/30 11:58:51;;;;;;;11.40;5.40;;;22.90;21.00;;;;;;5018890;28;20457;-86
2021/03/30 12:01:19;;;;;;;13.93;5.17;;;22.90;22.80;;;;;;5019031;28;20572;-87
2021/03/30 12:03:45;;;;;;;9.00;5.33;;;23.10;22.00;;;;;;5022815;28;20548;-86
2021/03/30 12:06:11;;;;;;;12.00;5.80;;;23.10;20.90;;;;;;5017755;28;20553;-86
2021/03/30 12:08:38;;;;;;;8.30;5.17;;;22.90;20.90;;;;;;5017658;28;20414;-86
2021/03/30 12:11:05;;;;;;;16.43;4.63;;;23.10;19.70;;;;;;5017889;28;20470;-86
2021/03/30 12:13:31;;;;;;;11.80;5.83;;;23.20;19.80;;;;;;5022614;28;20453;-86
2021/03/30 12:15:58;;;;;;;12.40;5.00;;;23.30;20.50;;;;;;5020754;28;20551;-86
2021/03/30 12:18:25;;;;;;;9.20;4.73;;;23.40;20.50;;;;;;5018072;28;20798;-87
2021/03/30 12:20:52;;;;;;;20.27;5.60;;;23.40;19.20;;;;;;5019114;28;20473;-86
2021/03/30 12:23:19;;;;;;;7.30;5.07;;;23.70;19.70;;;;;;5018669;28;20947;-86
2021/03/30 12:25:45;;;;;;;15.13;5.90;;;24.10;19.90;;;;;;5026069;28;20430;-86
2021/03/30 12:28:12;;;;;;;13.93;5.53;;;24.20;20.50;;;;;;5028756;28;20816;-86
2021/03/30 12:30:38;;;;;;;9.80;5.30;;;24.00;20.20;;;;;;5018092;28;20485;-87
2021/03/30 12:33:05;;;;;;;8.30;5.23;;;24.10;19.60;;;;;;5017671;28;20433;-86
2021/03/30 12:35:33;;;;;;;11.40;5.40;;;24.00;20.00;;;;;;5017255;28;20564;-87
2021/03/30 12:37:59;;;;;;;13.40;6.90;;;24.10;19.70;;;;;;5017139;28;20453;-86
2021/03/30 12:40:26;;;;;;;16.90;5.40;;;24.40;19.20;;;;;;5017320;28;20484;-86
2021/03/30 12:42:53;;;;;;;6.53;5.63;;;24.70;18.60;;;;;;5017330;28;20560;-86
2021/03/30 12:45:20;;;;;;;7.00;5.07;;;24.80;18.60;;;;;;5016988;28;20931;-86
2021/03/30 12:47:46;;;;;;;7.87;5.20;;;24.80;18.80;;;;;;5023686;28;20464;-86
2021/03/30 12:50:14;;;;;;;8.83;5.10;;;24.70;19.90;;;;;;5019123;28;20454;-87
2021/03/30 12:52:41;;;;;;;11.30;4.60;;;24.70;18.70;;;;;;5016361;28;20516;-86
2021/03/30 12:55:11;;;;;;;7.30;4.40;;;25.00;19.10;;;;;;5016357;28;20513;-86